createdAt,value
2023-04-27T00:00:50.318Z,402.00
2023-04-27T00:01:50.400Z,401.00
2023-04-27T00:02:50.457Z,400.00
2023-04-27T00:03:50.516Z,400.00
2023-04-27T00:04:50.625Z,399.00
2023-04-27T00:05:50.755Z,399.00
2023-04-27T00:06:50.493Z,399.00
2023-04-27T00:07:50.562Z,401.00
2023-04-27T00:08:50.609Z,401.00
2023-04-27T00:09:50.631Z,401.00
2023-04-27T00:10:50.617Z,399.00
2023-04-27T00:11:50.639Z,399.00
2023-04-27T00:12:50.647Z,398.00
2023-04-27T00:13:50.700Z,399.00
2023-04-27T00:14:50.790Z,399.00
2023-04-27T00:15:50.844Z,399.00
2023-04-27T00:16:50.959Z,398.00
2023-04-27T00:17:50.969Z,399.00
2023-04-27T00:18:51.009Z,400.00
2023-04-27T00:19:51.067Z,400.00
2023-04-27T00:20:51.114Z,402.00
2023-04-27T00:21:51.158Z,403.00
2023-04-27T00:22:51.228Z,404.00
2023-04-27T00:23:51.273Z,405.00
2023-04-27T00:24:51.340Z,407.00
2023-04-27T00:25:51.386Z,408.00
2023-04-27T00:26:51.460Z,406.00
2023-04-27T00:27:51.507Z,406.00
2023-04-27T00:28:51.546Z,405.00
2023-04-27T00:29:51.605Z,403.00
2023-04-27T00:30:51.675Z,401.00
2023-04-27T00:31:51.760Z,402.00
2023-04-27T00:32:51.832Z,402.00
2023-04-27T00:33:51.859Z,402.00
2023-04-27T00:34:51.909Z,401.00
2023-04-27T00:35:51.936Z,399.00
2023-04-27T00:36:51.996Z,398.00
2023-04-27T00:37:52.037Z,398.00
2023-04-27T00:38:52.096Z,399.00
2023-04-27T00:39:52.149Z,397.00
2023-04-27T00:40:52.203Z,398.00
2023-04-27T00:41:52.233Z,397.00
2023-04-27T00:42:52.254Z,397.00
2023-04-27T00:43:52.260Z,398.00
2023-04-27T00:44:52.282Z,397.00
2023-04-27T00:45:52.301Z,396.00
2023-04-27T00:46:52.321Z,398.00
2023-04-27T00:47:52.350Z,400.00
2023-04-27T00:48:52.316Z,401.00
2023-04-27T00:49:52.363Z,400.00
2023-04-27T00:50:52.350Z,403.00
2023-04-27T00:51:52.361Z,403.00
2023-04-27T00:52:52.368Z,402.00
2023-04-27T00:53:52.362Z,402.00
2023-04-27T00:54:52.378Z,402.00
2023-04-27T00:55:52.410Z,401.00
2023-04-27T00:56:52.412Z,399.00
2023-04-27T00:57:52.428Z,399.00
2023-04-27T00:58:52.425Z,401.00
2023-04-27T00:59:52.460Z,402.00
2023-04-27T01:00:52.474Z,402.00
2023-04-27T01:01:52.449Z,400.00
2023-04-27T01:02:52.629Z,402.00
2023-04-27T01:03:52.631Z,400.00
2023-04-27T01:04:52.507Z,400.00
2023-04-27T01:05:52.497Z,401.00
2023-04-27T01:06:52.510Z,402.00
2023-04-27T01:07:52.542Z,403.00
2023-04-27T01:08:52.542Z,402.00
2023-04-27T01:09:52.555Z,402.00
2023-04-27T01:10:52.539Z,401.00
2023-04-27T01:11:52.569Z,401.00
2023-04-27T01:12:52.569Z,399.00
2023-04-27T01:13:52.566Z,398.00
2023-04-27T01:14:52.576Z,396.00
2023-04-27T01:15:52.590Z,396.00
2023-04-27T01:16:52.748Z,398.00
2023-04-27T01:17:52.664Z,399.00
2023-04-27T01:18:52.645Z,400.00
2023-04-27T01:19:52.658Z,400.00
2023-04-27T01:20:52.670Z,401.00
2023-04-27T01:21:52.724Z,401.00
2023-04-27T01:22:52.731Z,401.00
2023-04-27T01:23:52.736Z,400.00
2023-04-27T01:24:52.792Z,400.00
2023-04-27T01:25:52.833Z,399.00
2023-04-27T01:26:52.885Z,400.00
2023-04-27T01:27:52.949Z,398.00
2023-04-27T01:28:53.038Z,399.00
2023-04-27T01:29:53.036Z,399.00
2023-04-27T01:30:53.053Z,398.00
2023-04-27T01:31:53.081Z,397.00
2023-04-27T01:32:53.195Z,398.00
2023-04-27T01:33:53.183Z,400.00
2023-04-27T01:34:53.251Z,400.00
2023-04-27T01:35:53.260Z,399.00
2023-04-27T01:36:53.317Z,399.00
2023-04-27T01:37:53.387Z,400.00
2023-04-27T01:38:53.439Z,401.00
2023-04-27T01:39:53.497Z,402.00
2023-04-27T01:40:53.536Z,402.00
2023-04-27T01:41:53.609Z,402.00
2023-04-27T01:42:53.674Z,402.00
2023-04-27T01:43:53.712Z,401.00
2023-04-27T01:44:53.788Z,401.00
2023-04-27T01:45:53.819Z,402.00
2023-04-27T01:46:53.797Z,400.00
2023-04-27T01:47:53.867Z,397.00
2023-04-27T01:48:53.806Z,397.00
2023-04-27T01:49:53.803Z,396.00
2023-04-27T01:50:53.811Z,396.00
2023-04-27T01:51:53.832Z,396.00
2023-04-27T01:52:53.851Z,395.00
2023-04-27T01:53:53.833Z,397.00
2023-04-27T01:54:53.873Z,396.00
2023-04-27T01:55:53.850Z,398.00
2023-04-27T01:56:53.873Z,398.00
2023-04-27T01:57:53.870Z,398.00
2023-04-27T01:58:53.883Z,398.00
2023-04-27T01:59:53.894Z,398.00
2023-04-27T02:00:53.915Z,397.00
2023-04-27T02:01:53.930Z,397.00
2023-04-27T02:02:53.980Z,396.00
2023-04-27T02:03:54.061Z,395.00
2023-04-27T02:04:54.038Z,398.00
2023-04-27T02:05:53.911Z,399.00
2023-04-27T02:06:53.912Z,398.00
2023-04-27T02:07:53.936Z,398.00
2023-04-27T02:08:53.922Z,398.00
2023-04-27T02:09:53.939Z,395.00
2023-04-27T02:10:53.940Z,393.00
2023-04-27T02:11:53.956Z,391.00
2023-04-27T02:12:53.973Z,392.00
2023-04-27T02:13:53.992Z,392.00
2023-04-27T02:14:54.069Z,395.00
2023-04-27T02:15:54.174Z,394.00
2023-04-27T02:16:54.135Z,394.00
2023-04-27T02:17:54.199Z,395.00
2023-04-27T02:18:54.141Z,396.00
2023-04-27T02:19:54.153Z,396.00
2023-04-27T02:20:54.133Z,397.00
2023-04-27T02:21:54.157Z,397.00
2023-04-27T02:22:54.165Z,398.00
2023-04-27T02:23:54.200Z,400.00
2023-04-27T02:24:54.199Z,400.00
2023-04-27T02:25:54.192Z,400.00
2023-04-27T02:26:54.215Z,403.00
2023-04-27T02:27:54.296Z,403.00
2023-04-27T02:28:54.325Z,403.00
2023-04-27T02:29:54.397Z,400.00
2023-04-27T02:30:54.447Z,401.00
2023-04-27T02:31:54.560Z,400.00
2023-04-27T02:32:54.593Z,400.00
2023-04-27T02:33:54.624Z,398.00
2023-04-27T02:34:54.647Z,398.00
2023-04-27T02:35:54.715Z,400.00
2023-04-27T02:36:54.742Z,399.00
2023-04-27T02:37:54.796Z,400.00
2023-04-27T02:38:54.849Z,400.00
2023-04-27T02:39:54.898Z,402.00
2023-04-27T02:40:54.949Z,402.00
2023-04-27T02:41:55.008Z,401.00
2023-04-27T02:42:55.053Z,401.00
2023-04-27T02:43:55.104Z,400.00
2023-04-27T02:44:55.144Z,402.00
2023-04-27T02:45:55.201Z,405.00
2023-04-27T02:46:55.347Z,405.00
2023-04-27T02:47:55.381Z,403.00
2023-04-27T02:48:55.311Z,402.00
2023-04-27T02:49:55.332Z,402.00
2023-04-27T02:50:55.339Z,402.00
2023-04-27T02:51:55.347Z,400.00
2023-04-27T02:52:55.391Z,402.00
2023-04-27T02:53:55.365Z,404.00
2023-04-27T02:54:55.389Z,404.00
2023-04-27T02:55:55.406Z,405.00
2023-04-27T02:56:55.414Z,405.00
2023-04-27T02:57:55.443Z,404.00
2023-04-27T02:58:55.457Z,404.00
2023-04-27T02:59:55.488Z,406.00
2023-04-27T03:00:55.500Z,406.00
2023-04-27T03:01:55.488Z,405.00
2023-04-27T03:02:55.639Z,408.00
2023-04-27T03:03:55.690Z,408.00
2023-04-27T03:04:55.527Z,409.00
2023-04-27T03:05:55.550Z,410.00
2023-04-27T03:06:55.634Z,410.00
2023-04-27T03:07:55.680Z,409.00
2023-04-27T03:08:55.732Z,409.00
2023-04-27T03:09:55.776Z,409.00
2023-04-27T03:10:55.755Z,407.00
2023-04-27T03:11:55.796Z,407.00
2023-04-27T03:12:55.771Z,409.00
2023-04-27T03:13:55.800Z,409.00
2023-04-27T03:14:55.807Z,409.00
2023-04-27T03:15:55.882Z,409.00
2023-04-27T03:16:55.901Z,407.00
2023-04-27T03:17:55.874Z,406.00
2023-04-27T03:18:55.841Z,407.00
2023-04-27T03:19:55.841Z,407.00
2023-04-27T03:20:55.831Z,405.00
2023-04-27T03:21:55.844Z,404.00
2023-04-27T03:22:55.872Z,406.00
2023-04-27T03:23:55.882Z,406.00
2023-04-27T03:24:55.888Z,407.00
2023-04-27T03:25:55.874Z,407.00
2023-04-27T03:26:55.897Z,405.00
2023-04-27T03:27:55.901Z,406.00
2023-04-27T03:28:55.899Z,404.00
2023-04-27T03:29:55.917Z,403.00
2023-04-27T03:30:55.932Z,402.00
2023-04-27T03:31:55.976Z,403.00
2023-04-27T03:32:56.016Z,404.00
2023-04-27T03:33:55.985Z,402.00
2023-04-27T03:34:55.982Z,403.00
2023-04-27T03:35:55.993Z,404.00
2023-04-27T03:36:55.982Z,403.00
2023-04-27T03:37:56.019Z,403.00
2023-04-27T03:38:56.020Z,406.00
2023-04-27T03:39:56.017Z,406.00
2023-04-27T03:40:56.034Z,407.00
2023-04-27T03:41:56.066Z,405.00
2023-04-27T03:42:57.060Z,404.00
2023-04-27T03:43:56.216Z,405.00
2023-04-27T03:44:56.278Z,405.00
2023-04-27T03:45:56.396Z,406.00
2023-04-27T03:46:56.362Z,407.00
2023-04-27T03:47:56.390Z,408.00
2023-04-27T03:48:56.361Z,408.00
2023-04-27T03:49:56.373Z,408.00
2023-04-27T03:50:56.392Z,408.00
2023-04-27T03:51:56.403Z,409.00
2023-04-27T03:52:56.427Z,408.00
2023-04-27T03:53:56.480Z,408.00
2023-04-27T03:54:56.462Z,409.00
2023-04-27T03:55:56.441Z,409.00
2023-04-27T03:56:56.425Z,408.00
2023-04-27T03:57:56.498Z,410.00
2023-04-27T03:58:56.472Z,409.00
2023-04-27T03:59:56.470Z,408.00
2023-04-27T04:00:56.458Z,409.00
2023-04-27T04:01:57.460Z,412.00
2023-04-27T04:02:56.706Z,413.00
2023-04-27T04:03:56.696Z,413.00
2023-04-27T04:04:56.877Z,414.00
2023-04-27T04:05:56.571Z,414.00
2023-04-27T04:06:56.592Z,413.00
2023-04-27T04:07:56.626Z,413.00
2023-04-27T04:08:56.626Z,412.00
2023-04-27T04:09:56.640Z,412.00
2023-04-27T04:10:56.637Z,413.00
2023-04-27T04:11:56.633Z,412.00
2023-04-27T04:12:56.686Z,410.00
2023-04-27T04:13:56.722Z,413.00
2023-04-27T04:14:56.764Z,412.00
2023-04-27T04:15:56.927Z,411.00
2023-04-27T04:16:56.900Z,408.00
2023-04-27T04:17:56.914Z,406.00
2023-04-27T04:18:56.912Z,407.00
2023-04-27T04:19:56.906Z,408.00
2023-04-27T04:20:56.929Z,410.00
2023-04-27T04:21:56.949Z,410.00
2023-04-27T04:22:56.983Z,411.00
2023-04-27T04:23:56.993Z,409.00
2023-04-27T04:24:56.991Z,408.00
2023-04-27T04:25:57.013Z,408.00
2023-04-27T04:26:57.033Z,409.00
2023-04-27T04:27:57.019Z,410.00
2023-04-27T04:28:57.023Z,410.00
2023-04-27T04:29:57.033Z,411.00
2023-04-27T04:30:57.094Z,411.00
2023-04-27T04:31:57.069Z,412.00
2023-04-27T04:32:57.085Z,411.00
2023-04-27T04:33:57.078Z,413.00
2023-04-27T04:34:57.082Z,412.00
2023-04-27T04:35:57.074Z,409.00
2023-04-27T04:36:57.075Z,410.00
2023-04-27T04:37:57.074Z,412.00
2023-04-27T04:38:57.150Z,412.00
2023-04-27T04:39:57.085Z,412.00
2023-04-27T04:40:57.158Z,413.00
2023-04-27T04:41:57.217Z,413.00
2023-04-27T04:42:57.250Z,414.00
2023-04-27T04:43:57.247Z,416.00
2023-04-27T04:44:57.271Z,415.00
2023-04-27T04:45:57.274Z,416.00
2023-04-27T04:46:57.331Z,414.00
2023-04-27T04:47:57.273Z,413.00
2023-04-27T04:48:57.282Z,413.00
2023-04-27T04:49:57.292Z,412.00
2023-04-27T04:50:57.310Z,413.00
2023-04-27T04:51:57.327Z,412.00
2023-04-27T04:52:57.362Z,411.00
2023-04-27T04:53:57.377Z,411.00
2023-04-27T04:54:57.364Z,413.00
2023-04-27T04:55:57.376Z,413.00
2023-04-27T04:56:57.364Z,412.00
2023-04-27T04:57:57.375Z,412.00
2023-04-27T04:58:57.384Z,413.00
2023-04-27T04:59:57.408Z,414.00
2023-04-27T05:00:57.392Z,416.00
2023-04-27T05:01:57.554Z,418.00
2023-04-27T05:02:57.496Z,417.00
2023-04-27T05:03:57.526Z,416.00
2023-04-27T05:04:57.646Z,414.00
2023-04-27T05:05:57.449Z,416.00
2023-04-27T05:06:57.425Z,416.00
2023-04-27T05:07:57.451Z,417.00
2023-04-27T05:08:57.440Z,418.00
2023-04-27T05:09:57.499Z,419.00
2023-04-27T05:10:57.447Z,421.00
2023-04-27T05:11:57.489Z,418.00
2023-04-27T05:12:57.504Z,419.00
2023-04-27T05:13:57.524Z,419.00
2023-04-27T05:14:57.516Z,419.00
2023-04-27T05:15:57.529Z,417.00
2023-04-27T05:16:57.470Z,417.00
2023-04-27T05:17:57.551Z,417.00
2023-04-27T05:18:57.552Z,417.00
2023-04-27T05:19:57.611Z,419.00
2023-04-27T05:20:57.670Z,418.00
2023-04-27T05:21:57.696Z,420.00
2023-04-27T05:22:57.765Z,421.00
2023-04-27T05:23:57.823Z,421.00
2023-04-27T05:24:57.852Z,421.00
2023-04-27T05:25:57.931Z,419.00
2023-04-27T05:26:58.605Z,422.00
2023-04-27T05:27:57.952Z,462.00
2023-04-27T05:28:57.999Z,546.00
2023-04-27T05:29:58.049Z,559.00
2023-04-27T05:30:58.115Z,558.00
2023-04-27T05:31:58.229Z,564.00
2023-04-27T05:32:58.260Z,567.00
2023-04-27T05:33:58.301Z,578.00
2023-04-27T05:34:58.357Z,656.00
2023-04-27T05:35:58.417Z,649.00
2023-04-27T05:36:58.564Z,641.00
2023-04-27T05:37:58.543Z,636.00
2023-04-27T05:38:58.541Z,641.00
2023-04-27T05:39:58.758Z,639.00
2023-04-27T05:40:58.677Z,639.00
2023-04-27T05:41:58.727Z,711.00
2023-04-27T05:42:58.731Z,733.00
2023-04-27T05:43:58.946Z,740.00
2023-04-27T05:44:58.728Z,745.00
2023-04-27T05:45:58.833Z,751.00
2023-04-27T05:46:58.793Z,732.00
2023-04-27T05:47:58.932Z,740.00
2023-04-27T05:48:58.936Z,777.00
2023-04-27T05:49:58.960Z,760.00
2023-04-27T05:50:58.957Z,768.00
2023-04-27T05:51:58.965Z,784.00
2023-04-27T05:52:58.947Z,800.00
2023-04-27T05:53:58.969Z,800.00
2023-04-27T05:54:58.953Z,807.00
2023-04-27T05:55:58.982Z,813.00
2023-04-27T05:56:58.983Z,774.00
2023-04-27T05:58:07.838Z,783.00
2023-04-27T05:59:02.399Z,850.00
2023-04-27T05:59:58.959Z,824.00
2023-04-27T06:00:58.950Z,812.00
2023-04-27T06:01:59.021Z,801.00
2023-04-27T06:02:59.024Z,784.00
2023-04-27T06:03:59.050Z,770.00
2023-04-27T06:04:58.943Z,765.00
2023-04-27T06:05:59.265Z,756.00
2023-04-27T06:06:58.915Z,751.00
2023-04-27T06:07:58.904Z,753.00
2023-04-27T06:08:58.897Z,758.00
2023-04-27T06:09:58.881Z,755.00
2023-04-27T06:10:58.892Z,753.00
2023-04-27T06:11:58.871Z,750.00
2023-04-27T06:12:59.155Z,748.00
2023-04-27T06:13:58.888Z,746.00
2023-04-27T06:14:58.832Z,742.00
2023-04-27T06:15:58.883Z,739.00
2023-04-27T06:16:58.861Z,737.00
2023-04-27T06:17:58.833Z,775.00
2023-04-27T06:18:58.805Z,764.00
2023-04-27T06:19:58.835Z,747.00
2023-04-27T06:20:58.815Z,742.00
2023-04-27T06:21:58.795Z,732.00
2023-04-27T06:22:58.797Z,728.00
2023-04-27T06:23:58.796Z,726.00
2023-04-27T06:24:58.761Z,723.00
2023-04-27T06:25:58.793Z,729.00
2023-04-27T06:26:58.763Z,731.00
2023-04-27T06:27:58.747Z,737.00
2023-04-27T06:28:58.731Z,728.00
2023-04-27T06:29:58.790Z,726.00
2023-04-27T06:30:59.126Z,717.00
2023-04-27T06:31:58.789Z,727.00
2023-04-27T06:32:58.762Z,774.00
2023-04-27T06:33:58.735Z,758.00
2023-04-27T06:34:58.727Z,764.00
2023-04-27T06:35:59.144Z,761.00
2023-04-27T06:36:58.703Z,744.00
2023-04-27T06:37:59.209Z,730.00
2023-04-27T06:38:58.692Z,718.00
2023-04-27T06:39:58.681Z,711.00
2023-04-27T06:40:58.676Z,703.00
2023-04-27T06:41:58.679Z,696.00
2023-04-27T06:42:58.691Z,680.00
2023-04-27T06:43:59.207Z,666.00
2023-04-27T06:44:58.633Z,696.00
2023-04-27T06:45:58.686Z,674.00
2023-04-27T06:46:58.643Z,660.00
2023-04-27T06:47:58.640Z,653.00
2023-04-27T06:48:58.610Z,645.00
2023-04-27T06:49:58.615Z,641.00
2023-04-27T06:50:58.596Z,632.00
2023-04-27T06:51:58.602Z,621.00
2023-04-27T06:52:58.607Z,646.00
2023-04-27T06:53:58.606Z,653.00
2023-04-27T06:54:58.587Z,651.00
2023-04-27T06:55:58.685Z,649.00
2023-04-27T06:56:58.718Z,643.00
2023-04-27T06:57:58.740Z,655.00
2023-04-27T06:58:58.777Z,657.00
2023-04-27T06:59:58.823Z,649.00
2023-04-27T07:00:59.462Z,643.00
2023-04-27T07:01:59.223Z,641.00
2023-04-27T07:02:59.137Z,650.00
2023-04-27T07:03:59.103Z,644.00
2023-04-27T07:04:59.156Z,658.00
2023-04-27T07:05:59.128Z,648.00
2023-04-27T07:06:59.137Z,648.00
2023-04-27T07:08:01.546Z,650.00
2023-04-27T07:08:59.276Z,652.00
2023-04-27T07:09:59.181Z,663.00
2023-04-27T07:10:59.181Z,695.00
2023-04-27T07:11:59.192Z,715.00
2023-04-27T07:12:59.169Z,726.00
2023-04-27T07:13:59.175Z,729.00
2023-04-27T07:14:59.183Z,724.00
2023-04-27T07:15:59.210Z,701.00
2023-04-27T07:16:59.163Z,662.00
2023-04-27T07:17:59.226Z,670.00
2023-04-27T07:18:59.404Z,675.00
2023-04-27T07:19:59.154Z,674.00
2023-04-27T07:20:59.155Z,672.00
2023-04-27T07:21:59.330Z,667.00
2023-04-27T07:22:59.161Z,665.00
2023-04-27T07:23:59.123Z,660.00
2023-04-27T07:24:59.124Z,653.00
2023-04-27T07:25:59.151Z,648.00
2023-04-27T07:26:59.224Z,664.00
2023-04-27T07:27:59.687Z,702.00
2023-04-27T07:28:59.343Z,706.00
2023-04-27T07:29:59.352Z,701.00
2023-04-27T07:30:59.436Z,706.00
2023-04-27T07:31:59.556Z,695.00
2023-04-27T07:32:59.578Z,801.00
2023-04-27T07:33:59.509Z,789.00
2023-04-27T07:34:59.523Z,801.00
2023-04-27T07:35:59.523Z,820.00
2023-04-27T07:36:59.577Z,835.00
2023-04-27T07:37:59.624Z,835.00
2023-04-27T07:38:59.648Z,834.00
2023-04-27T07:39:59.672Z,839.00
2023-04-27T07:40:59.676Z,844.00
2023-04-27T07:41:59.669Z,854.00
2023-04-27T07:42:59.659Z,870.00
2023-04-27T07:43:59.703Z,880.00
2023-04-27T07:44:59.745Z,895.00
2023-04-27T07:45:59.845Z,904.00
2023-04-27T07:46:59.878Z,915.00
2023-04-27T07:47:59.948Z,923.00
2023-04-27T07:49:00.017Z,935.00
2023-04-27T07:50:00.037Z,946.00
2023-04-27T07:51:00.163Z,951.00
2023-04-27T07:52:00.140Z,954.00
2023-04-27T07:53:00.160Z,957.00
2023-04-27T07:54:00.229Z,961.00
2023-04-27T07:55:00.250Z,965.00
2023-04-27T07:56:00.287Z,966.00
2023-04-27T07:57:00.302Z,965.00
2023-04-27T07:58:00.390Z,965.00
2023-04-27T07:59:00.381Z,933.00
2023-04-27T08:00:00.387Z,918.00
2023-04-27T08:01:00.414Z,912.00
2023-04-27T08:02:17.838Z,910.00
2023-04-27T08:03:01.634Z,911.00
2023-04-27T08:04:00.709Z,918.00
2023-04-27T08:05:00.638Z,925.00
2023-04-27T08:06:00.808Z,932.00
2023-04-27T08:07:00.761Z,924.00
2023-04-27T08:08:00.647Z,928.00
2023-04-27T08:09:00.705Z,934.00
2023-04-27T08:10:00.412Z,937.00
2023-04-27T08:11:00.404Z,937.00
2023-04-27T08:12:00.423Z,933.00
2023-04-27T08:13:00.379Z,929.00
2023-04-27T08:14:00.425Z,928.00
2023-04-27T08:15:00.486Z,925.00
2023-04-27T08:16:00.537Z,924.00
2023-04-27T08:17:00.581Z,924.00
2023-04-27T08:18:00.608Z,922.00
2023-04-27T08:19:00.898Z,923.00
2023-04-27T08:20:00.552Z,923.00
2023-04-27T08:21:00.728Z,918.00
2023-04-27T08:22:00.618Z,850.00
2023-04-27T08:23:00.599Z,876.00
2023-04-27T08:24:00.692Z,876.00
2023-04-27T08:25:00.723Z,880.00
2023-04-27T08:26:00.775Z,894.00
2023-04-27T08:27:00.833Z,897.00
2023-04-27T08:28:00.825Z,905.00
2023-04-27T08:29:03.234Z,954.00
2023-04-27T08:30:01.838Z,947.00
2023-04-27T08:31:00.857Z,964.00
2023-04-27T08:32:00.818Z,967.00
2023-04-27T08:33:00.862Z,965.00
2023-04-27T08:34:00.818Z,976.00
2023-04-27T08:35:00.808Z,978.00
2023-04-27T08:36:00.809Z,997.00
2023-04-27T08:37:00.803Z,1006.00
2023-04-27T08:38:00.786Z,1047.00
2023-04-27T08:39:00.765Z,1139.00
2023-04-27T08:40:00.787Z,1139.00
2023-04-27T08:41:07.626Z,1214.00
2023-04-27T08:42:01.802Z,1207.00
2023-04-27T08:43:00.779Z,1073.00
2023-04-27T08:44:00.732Z,950.00
2023-04-27T08:45:00.736Z,932.00
2023-04-27T08:46:00.766Z,906.00
2023-04-27T08:47:00.740Z,878.00
2023-04-27T08:48:00.778Z,875.00
2023-04-27T08:49:00.727Z,938.00
2023-04-27T08:50:00.708Z,871.00
2023-04-27T08:51:00.689Z,862.00
2023-04-27T08:52:00.681Z,923.00
2023-04-27T08:53:00.684Z,911.00
2023-04-27T08:54:00.688Z,1013.00
2023-04-27T08:55:00.666Z,968.00
2023-04-27T08:56:00.684Z,945.00
2023-04-27T08:57:00.663Z,926.00
2023-04-27T08:58:00.709Z,924.00
2023-04-27T08:59:01.179Z,931.00
2023-04-27T09:00:00.844Z,933.00
2023-04-27T09:01:00.870Z,935.00
2023-04-27T09:02:00.917Z,943.00
2023-04-27T09:03:01.064Z,947.00
2023-04-27T09:04:01.079Z,954.00
2023-04-27T09:05:01.307Z,950.00
2023-04-27T09:06:05.018Z,955.00
2023-04-27T09:07:01.957Z,966.00
2023-04-27T09:08:00.959Z,982.00
2023-04-27T09:09:00.939Z,995.00
2023-04-27T09:10:00.916Z,1003.00
2023-04-27T09:11:00.912Z,1011.00
2023-04-27T09:12:00.905Z,1015.00
2023-04-27T09:13:00.929Z,1008.00
2023-04-27T09:14:00.909Z,946.00
2023-04-27T09:15:00.890Z,956.00
2023-04-27T09:16:00.926Z,964.00
2023-04-27T09:17:00.868Z,964.00
2023-04-27T09:18:00.908Z,981.00
2023-04-27T09:19:00.867Z,977.00
2023-04-27T09:20:00.858Z,972.00
2023-04-27T09:21:00.855Z,971.00
2023-04-27T09:22:00.864Z,974.00
2023-04-27T09:23:00.838Z,978.00
2023-04-27T09:24:00.848Z,987.00
2023-04-27T09:25:00.833Z,1017.00
2023-04-27T09:26:01.415Z,1016.00
2023-04-27T09:27:01.142Z,914.00
2023-04-27T09:28:00.816Z,921.00
2023-04-27T09:29:01.204Z,936.00
2023-04-27T09:30:00.813Z,942.00
2023-04-27T09:31:01.226Z,805.00
2023-04-27T09:32:01.014Z,925.00
2023-04-27T09:33:01.030Z,936.00
2023-04-27T09:34:01.056Z,893.00
2023-04-27T09:35:01.094Z,860.00
2023-04-27T09:36:01.132Z,848.00
2023-04-27T09:37:01.198Z,842.00
2023-04-27T09:38:01.286Z,844.00
2023-04-27T09:39:01.329Z,849.00
2023-04-27T09:40:01.415Z,846.00
2023-04-27T09:41:01.712Z,795.00
2023-04-27T09:42:01.514Z,794.00
2023-04-27T09:43:01.483Z,786.00
2023-04-27T09:44:01.532Z,764.00
2023-04-27T09:45:01.553Z,782.00
2023-04-27T09:46:01.713Z,783.00
2023-04-27T09:47:01.643Z,779.00
2023-04-27T09:48:01.758Z,773.00
2023-04-27T09:49:01.719Z,766.00
2023-04-27T09:50:01.762Z,759.00
2023-04-27T09:51:02.213Z,748.00
2023-04-27T09:52:01.861Z,740.00
2023-04-27T09:53:01.921Z,732.00
2023-04-27T09:54:01.976Z,725.00
2023-04-27T09:55:02.027Z,720.00
2023-04-27T09:56:02.237Z,717.00
2023-04-27T09:57:02.152Z,713.00
2023-04-27T09:58:02.204Z,710.00
2023-04-27T09:59:02.261Z,706.00
2023-04-27T10:00:02.327Z,702.00
2023-04-27T10:01:02.401Z,693.00
2023-04-27T10:02:10.014Z,684.00
2023-04-27T10:03:03.527Z,676.00
2023-04-27T10:04:02.583Z,671.00
2023-04-27T10:05:02.456Z,667.00
2023-04-27T10:06:02.414Z,661.00
2023-04-27T10:07:02.426Z,658.00
2023-04-27T10:08:02.436Z,656.00
2023-04-27T10:09:02.427Z,650.00
2023-04-27T10:10:02.396Z,645.00
2023-04-27T10:11:02.411Z,638.00
2023-04-27T10:12:02.376Z,633.00
2023-04-27T10:13:02.412Z,626.00
2023-04-27T10:14:02.364Z,621.00
2023-04-27T10:15:02.364Z,618.00
2023-04-27T10:16:02.336Z,613.00
2023-04-27T10:17:02.422Z,608.00
2023-04-27T10:18:02.349Z,606.00
2023-04-27T10:19:02.314Z,604.00
2023-04-27T10:20:02.324Z,604.00
2023-04-27T10:21:02.299Z,602.00
2023-04-27T10:22:02.327Z,599.00
2023-04-27T10:23:02.341Z,598.00
2023-04-27T10:24:02.715Z,594.00
2023-04-27T10:25:02.362Z,590.00
2023-04-27T10:26:02.415Z,588.00
2023-04-27T10:27:02.479Z,584.00
2023-04-27T10:28:02.603Z,579.00
2023-04-27T10:29:02.584Z,576.00
2023-04-27T10:30:02.644Z,575.00
2023-04-27T10:31:02.741Z,577.00
2023-04-27T10:32:02.713Z,576.00
2023-04-27T10:33:02.830Z,575.00
2023-04-27T10:34:02.831Z,575.00
2023-04-27T10:35:02.880Z,577.00
2023-04-27T10:36:02.950Z,575.00
2023-04-27T10:37:03.013Z,574.00
2023-04-27T10:38:03.076Z,574.00
2023-04-27T10:39:03.106Z,571.00
2023-04-27T10:40:03.113Z,570.00
2023-04-27T10:41:03.139Z,570.00
2023-04-27T10:42:03.165Z,568.00
2023-04-27T10:43:03.162Z,568.00
2023-04-27T10:44:03.220Z,567.00
2023-04-27T10:45:03.185Z,563.00
2023-04-27T10:46:03.222Z,562.00
2023-04-27T10:47:04.137Z,562.00
2023-04-27T10:48:03.285Z,562.00
2023-04-27T10:49:03.205Z,560.00
2023-04-27T10:50:03.212Z,561.00
2023-04-27T10:51:03.242Z,559.00
2023-04-27T10:52:03.765Z,558.00
2023-04-27T10:53:03.258Z,557.00
2023-04-27T10:54:03.273Z,555.00
2023-04-27T10:55:03.733Z,553.00
2023-04-27T10:56:03.288Z,552.00
2023-04-27T10:57:03.356Z,553.00
2023-04-27T10:58:03.402Z,552.00
2023-04-27T10:59:03.471Z,549.00
2023-04-27T11:00:03.486Z,546.00
2023-04-27T11:01:03.492Z,545.00
2023-04-27T11:02:03.599Z,546.00
2023-04-27T11:03:03.681Z,546.00
2023-04-27T11:04:03.661Z,543.00
2023-04-27T11:05:03.741Z,541.00
2023-04-27T11:06:03.796Z,539.00
2023-04-27T11:07:03.867Z,538.00
2023-04-27T11:08:03.887Z,536.00
2023-04-27T11:09:03.873Z,535.00
2023-04-27T11:10:03.986Z,536.00
2023-04-27T11:11:04.061Z,537.00
2023-04-27T11:12:04.149Z,538.00
2023-04-27T11:13:04.143Z,536.00
2023-04-27T11:14:04.247Z,534.00
2023-04-27T11:15:04.278Z,531.00
2023-04-27T11:16:04.370Z,529.00
2023-04-27T11:17:04.347Z,526.00
2023-04-27T11:18:04.459Z,524.00
2023-04-27T11:19:04.394Z,523.00
2023-04-27T11:20:04.414Z,523.00
2023-04-27T11:21:04.464Z,521.00
2023-04-27T11:22:04.783Z,519.00
2023-04-27T11:23:04.480Z,518.00
2023-04-27T11:24:04.507Z,518.00
2023-04-27T11:25:04.527Z,516.00
2023-04-27T11:26:04.526Z,516.00
2023-04-27T11:27:04.532Z,513.00
2023-04-27T11:28:04.583Z,513.00
2023-04-27T11:29:04.610Z,515.00
2023-04-27T11:30:04.685Z,514.00
2023-04-27T11:31:04.790Z,511.00
2023-04-27T11:32:04.868Z,512.00
2023-04-27T11:33:04.916Z,512.00
2023-04-27T11:34:04.910Z,510.00
2023-04-27T11:35:04.972Z,509.00
2023-04-27T11:36:04.951Z,508.00
2023-04-27T11:37:14.681Z,508.00
2023-04-27T11:38:05.983Z,506.00
2023-04-27T11:39:05.034Z,506.00
2023-04-27T11:40:05.048Z,507.00
2023-04-27T11:41:04.962Z,505.00
2023-04-27T11:42:04.956Z,505.00
2023-04-27T11:43:04.929Z,502.00
2023-04-27T11:44:04.927Z,500.00
2023-04-27T11:45:04.921Z,499.00
2023-04-27T11:46:04.928Z,498.00
2023-04-27T11:47:04.979Z,498.00
2023-04-27T11:48:04.902Z,496.00
2023-04-27T11:49:04.887Z,497.00
2023-04-27T11:50:04.909Z,497.00
2023-04-27T11:51:04.868Z,499.00
2023-04-27T11:52:04.889Z,497.00
2023-04-27T11:53:04.901Z,498.00
2023-04-27T11:54:04.916Z,496.00
2023-04-27T11:55:04.941Z,496.00
2023-04-27T11:56:04.976Z,496.00
2023-04-27T11:57:05.006Z,497.00
2023-04-27T11:58:05.007Z,495.00
2023-04-27T11:59:05.080Z,495.00
2023-04-27T12:00:05.084Z,493.00
2023-04-27T12:01:05.122Z,491.00
2023-04-27T12:02:05.197Z,488.00
2023-04-27T12:03:05.294Z,486.00
2023-04-27T12:04:05.372Z,487.00
2023-04-27T12:05:05.373Z,485.00
2023-04-27T12:06:21.631Z,484.00
2023-04-27T12:07:06.268Z,485.00
2023-04-27T12:08:05.279Z,487.00
2023-04-27T12:09:05.255Z,487.00
2023-04-27T12:10:05.273Z,488.00
2023-04-27T12:11:05.220Z,486.00
2023-04-27T12:12:05.220Z,487.00
2023-04-27T12:13:05.263Z,487.00
2023-04-27T12:14:05.213Z,486.00
2023-04-27T12:15:05.211Z,482.00
2023-04-27T12:16:05.191Z,480.00
2023-04-27T12:17:05.247Z,481.00
2023-04-27T12:18:05.215Z,482.00
2023-04-27T12:19:05.191Z,481.00
2023-04-27T12:20:05.192Z,481.00
2023-04-27T12:21:06.351Z,482.00
2023-04-27T12:22:05.288Z,482.00
2023-04-27T12:23:05.311Z,483.00
2023-04-27T12:24:05.355Z,483.00
2023-04-27T12:25:05.402Z,480.00
2023-04-27T12:26:05.406Z,479.00
2023-04-27T12:27:05.505Z,480.00
2023-04-27T12:28:05.432Z,480.00
2023-04-27T12:29:05.460Z,479.00